createdAt,value
2018-09-19T00:00:06.186Z,1007.76
2018-09-19T00:00:46.578Z,1007.79
2018-09-19T00:01:27.020Z,1007.82
2018-09-19T00:02:07.567Z,1007.82
2018-09-19T00:02:47.829Z,1007.81
2018-09-19T00:03:28.286Z,1007.85
2018-09-19T00:04:08.737Z,1007.79
2018-09-19T00:04:49.142Z,1007.86
2018-09-19T00:05:29.579Z,1007.83
2018-09-19T00:06:09.917Z,1007.85
2018-09-19T00:06:50.433Z,1007.81
2018-09-19T00:07:30.830Z,1007.79
2018-09-19T00:08:11.204Z,1007.81
2018-09-19T00:08:51.670Z,1007.8
2018-09-19T00:09:32.048Z,1007.81
2018-09-19T00:10:12.629Z,1007.8
2018-09-19T00:10:53.082Z,1007.75
2018-09-19T00:11:33.452Z,1007.78
2018-09-19T00:12:13.784Z,1007.81
2018-09-19T00:12:54.463Z,1007.76
2018-09-19T00:13:34.794Z,1007.77
2018-09-19T00:14:15.130Z,1007.8
2018-09-19T00:14:55.600Z,1007.82
2018-09-19T00:15:35.959Z,1007.8
2018-09-19T00:16:16.336Z,1007.79
2018-09-19T00:16:56.838Z,1007.83
2018-09-19T00:17:37.223Z,1007.82
2018-09-19T00:18:17.708Z,1007.83
2018-09-19T00:18:58.201Z,1007.85
2018-09-19T00:19:38.581Z,1007.85
2018-09-19T00:20:19.044Z,1007.84
2018-09-19T00:20:59.330Z,1007.84
2018-09-19T00:21:39.791Z,1007.83
2018-09-19T00:22:20.191Z,1007.83
2018-09-19T00:23:00.541Z,1007.87
2018-09-19T00:23:41.096Z,1007.85
2018-09-19T00:24:21.459Z,1007.87
2018-09-19T00:25:01.821Z,1007.83
2018-09-19T00:25:42.296Z,1007.88
2018-09-19T00:26:22.699Z,1007.88
2018-09-19T00:27:03.082Z,1007.88
2018-09-19T00:27:43.682Z,1007.87
2018-09-19T00:28:24.093Z,1007.9
2018-09-19T00:29:04.445Z,1007.89
2018-09-19T00:29:44.781Z,1007.89
2018-09-19T00:30:25.392Z,1007.9
2018-09-19T00:31:05.718Z,1007.91
2018-09-19T00:31:46.267Z,1007.91
2018-09-19T00:32:26.558Z,1007.89
2018-09-19T00:33:07.007Z,1007.9
2018-09-19T00:33:47.421Z,1007.9
2018-09-19T00:34:27.922Z,1007.92
2018-09-19T00:35:08.286Z,1007.88
2018-09-19T00:35:48.757Z,1007.89
2018-09-19T00:36:29.197Z,1007.93
2018-09-19T00:37:09.540Z,1007.89
2018-09-19T00:37:49.998Z,1007.91
2018-09-19T00:38:30.442Z,1007.94
2018-09-19T00:39:11.089Z,1007.92
2018-09-19T00:39:51.402Z,1007.95
2018-09-19T00:40:31.839Z,1007.96
2018-09-19T00:41:12.213Z,1007.96
2018-09-19T00:41:52.720Z,1007.95
2018-09-19T00:42:33.083Z,1008
2018-09-19T00:43:13.556Z,1008.01
2018-09-19T00:43:53.912Z,1007.98
2018-09-19T00:44:34.307Z,1007.99
2018-09-19T00:45:14.663Z,1008.05
2018-09-19T00:45:55.309Z,1008.07
2018-09-19T00:46:35.651Z,1008.07
2018-09-19T00:47:16.116Z,1008.1
2018-09-19T00:47:56.466Z,1008.1
2018-09-19T00:48:36.973Z,1008.11
2018-09-19T00:49:17.403Z,1008.1
2018-09-19T00:49:57.958Z,1008.09
2018-09-19T00:50:38.379Z,1008.12
2018-09-19T00:51:18.894Z,1008.1
2018-09-19T00:51:59.236Z,1008.09
2018-09-19T00:52:39.635Z,1008.1
2018-09-19T00:53:20.060Z,1008.09
2018-09-19T00:54:00.484Z,1008.08
2018-09-19T00:54:40.858Z,1008.06
2018-09-19T00:55:21.425Z,1008.05
2018-09-19T00:56:01.744Z,1008.07
2018-09-19T00:56:42.109Z,1008.09
2018-09-19T00:57:22.580Z,1008.05
2018-09-19T00:58:02.960Z,1008.04
2018-09-19T00:58:43.319Z,1008.04
2018-09-19T00:59:23.813Z,1008.02
2018-09-19T01:00:04.176Z,1008.02
2018-09-19T01:00:44.574Z,1008
2018-09-19T01:01:25.007Z,1008.04
2018-09-19T01:02:05.476Z,1008.02
2018-09-19T01:02:45.811Z,1008.06
2018-09-19T01:03:26.356Z,1008.07
2018-09-19T01:04:06.998Z,1008.1
2018-09-19T01:04:47.438Z,1008.08
2018-09-19T01:05:28.039Z,1008.1
2018-09-19T01:06:08.429Z,1008.13
2018-09-19T01:06:48.960Z,1008.12
2018-09-19T01:07:29.366Z,1008.14
2018-09-19T01:08:09.829Z,1008.13
2018-09-19T01:08:50.222Z,1008.1
2018-09-19T01:09:30.600Z,1008.14
2018-09-19T01:10:11.011Z,1008.14
2018-09-19T01:10:51.469Z,1008.12
2018-09-19T01:11:31.945Z,1008.13
2018-09-19T01:12:12.313Z,1008.12
2018-09-19T01:12:52.811Z,1008.09
2018-09-19T01:13:33.126Z,1008.12
2018-09-19T01:14:13.628Z,1008.12
2018-09-19T01:14:54.037Z,1008.13
2018-09-19T01:15:34.464Z,1008.11
2018-09-19T01:16:14.877Z,1008.13
2018-09-19T01:16:55.287Z,1008.09
2018-09-19T01:17:35.655Z,1008.08
2018-09-19T01:18:16.063Z,1008.1
2018-09-19T01:18:56.525Z,1008.1
2018-09-19T01:19:36.971Z,1008.08
2018-09-19T01:20:17.370Z,1008.06
2018-09-19T01:20:57.802Z,1008.08
2018-09-19T01:21:38.276Z,1008.07
2018-09-19T01:22:18.749Z,1008.05
2018-09-19T01:22:59.130Z,1008.12
2018-09-19T01:23:39.537Z,1008.06
2018-09-19T01:24:19.964Z,1008.08
2018-09-19T01:25:00.382Z,1008.1
2018-09-19T01:25:40.722Z,1008.12
2018-09-19T01:26:21.094Z,1008.11
2018-09-19T01:27:01.621Z,1008.11
2018-09-19T01:29:32.107Z,1008.17
2018-09-19T01:30:11.875Z,1008.18
2018-09-19T01:30:52.278Z,1008.15
2018-09-19T01:31:32.712Z,1008.12
2018-09-19T01:32:13.053Z,1008.15
2018-09-19T01:32:53.556Z,1008.2
2018-09-19T01:33:33.947Z,1008.21
2018-09-19T01:34:14.357Z,1008.21
2018-09-19T01:34:54.791Z,1008.21
2018-09-19T01:35:35.216Z,1008.25
2018-09-19T01:36:15.584Z,1008.23
2018-09-19T01:36:56.241Z,1008.22
2018-09-19T01:37:36.857Z,1008.21
2018-09-19T01:38:17.159Z,1008.21
2018-09-19T01:38:57.514Z,1008.16
2018-09-19T01:39:37.983Z,1008.2
2018-09-19T01:40:18.343Z,1008.18
2018-09-19T01:40:58.744Z,1008.18
2018-09-19T01:41:39.236Z,1008.2
2018-09-19T01:42:19.583Z,1008.14
2018-09-19T01:43:00.098Z,1008.16
2018-09-19T01:43:40.437Z,1008.16
2018-09-19T01:44:20.883Z,1008.2
2018-09-19T01:45:01.331Z,1008.17
2018-09-19T01:45:41.703Z,1008.16
2018-09-19T01:46:22.192Z,1008.19
2018-09-19T01:47:02.579Z,1008.18
2018-09-19T01:47:42.995Z,1008.19
2018-09-19T01:48:23.429Z,1008.19
2018-09-19T01:49:03.866Z,1008.23
2018-09-19T01:49:44.252Z,1008.23
2018-09-19T01:50:24.705Z,1008.21
2018-09-19T01:51:05.005Z,1008.21
2018-09-19T01:51:45.463Z,1008.2
2018-09-19T01:52:25.862Z,1008.2
2018-09-19T01:53:06.338Z,1008.2
2018-09-19T01:53:46.761Z,1008.17
2018-09-19T01:54:27.189Z,1008.21
2018-09-19T01:55:07.819Z,1008.18
2018-09-19T01:55:48.095Z,1008.18
2018-09-19T01:56:28.451Z,1008.21
2018-09-19T01:57:08.992Z,1008.18
2018-09-19T01:57:49.455Z,1008.22
2018-09-19T01:58:29.814Z,1008.19
2018-09-19T01:59:10.348Z,1008.23
2018-09-19T01:59:50.682Z,1008.23
2018-09-19T02:00:31.132Z,1008.26
2018-09-19T02:01:11.569Z,1008.3
2018-09-19T02:01:51.885Z,1008.32
2018-09-19T02:02:32.305Z,1008.29
2018-09-19T02:03:12.799Z,1008.29
2018-09-19T02:03:53.242Z,1008.28
2018-09-19T02:04:33.539Z,1008.24
2018-09-19T02:05:13.960Z,1008.2
2018-09-19T02:05:54.424Z,1008.22
2018-09-19T02:06:34.796Z,1008.18
2018-09-19T02:07:15.247Z,1008.18
2018-09-19T02:07:55.619Z,1008.2
2018-09-19T02:08:36.083Z,1008.25
2018-09-19T02:09:16.444Z,1008.18
2018-09-19T02:09:56.885Z,1008.18
2018-09-19T02:10:37.407Z,1008.22
2018-09-19T02:11:17.832Z,1008.25
2018-09-19T02:11:58.253Z,1008.25
2018-09-19T02:12:53.104Z,1008.2
2018-09-19T02:13:33.601Z,1008.22
2018-09-19T02:14:14.027Z,1008.22
2018-09-19T02:14:54.306Z,1008.26
2018-09-19T02:15:34.725Z,1008.25
2018-09-19T02:16:15.209Z,1008.24
2018-09-19T02:16:55.590Z,1008.25
2018-09-19T02:17:36.187Z,1008.23
2018-09-19T02:18:16.594Z,1008.25
2018-09-19T02:18:56.913Z,1008.22
2018-09-19T02:19:37.544Z,1008.22
2018-09-19T02:20:17.976Z,1008.19
2018-09-19T02:20:58.665Z,1008.22
2018-09-19T02:21:39.151Z,1008.19
2018-09-19T02:22:19.602Z,1008.24
2018-09-19T02:23:00.081Z,1008.19
2018-09-19T02:23:40.473Z,1008.21
2018-09-19T02:24:21.030Z,1008.18
2018-09-19T02:25:01.211Z,1008.21
2018-09-19T02:25:41.573Z,1008.19
2018-09-19T02:26:22.085Z,1008.17
2018-09-19T02:27:02.515Z,1008.22
2018-09-19T02:27:42.956Z,1008.18
2018-09-19T02:28:23.443Z,1008.19
2018-09-19T02:29:03.863Z,1008.22
2018-09-19T02:29:44.181Z,1008.24
2018-09-19T02:30:24.694Z,1008.2
2018-09-19T02:31:05.032Z,1008.24
2018-09-19T02:31:45.372Z,1008.21
2018-09-19T02:32:25.775Z,1008.23
2018-09-19T02:33:06.196Z,1008.22
2018-09-19T02:33:46.609Z,1008.24
2018-09-19T02:34:27.009Z,1008.26
2018-09-19T02:35:07.571Z,1008.27
2018-09-19T02:35:47.845Z,1008.27
2018-09-19T02:36:28.271Z,1008.28
2018-09-19T02:37:08.606Z,1008.28
2018-09-19T02:37:49.018Z,1008.28
2018-09-19T02:38:29.463Z,1008.25
2018-09-19T02:39:09.862Z,1008.28
2018-09-19T02:39:50.251Z,1008.3
2018-09-19T02:40:30.649Z,1008.28
2018-09-19T02:41:11.061Z,1008.31
2018-09-19T02:41:51.470Z,1008.32
2018-09-19T02:42:31.964Z,1008.33
2018-09-19T02:43:12.380Z,1008.29
2018-09-19T02:43:52.777Z,1008.31
2018-09-19T02:44:33.285Z,1008.37
2018-09-19T02:45:13.703Z,1008.37
2018-09-19T02:45:54.134Z,1008.32
2018-09-19T02:46:34.961Z,1008.34
2018-09-19T02:47:15.465Z,1008.31
2018-09-19T02:47:55.773Z,1008.3
2018-09-19T02:48:36.283Z,1008.31
2018-09-19T02:49:16.663Z,1008.33
2018-09-19T02:49:57.067Z,1008.35
2018-09-19T02:50:37.523Z,1008.39
2018-09-19T02:51:17.837Z,1008.41
2018-09-19T02:51:58.237Z,1008.45
2018-09-19T02:52:38.943Z,1008.41
2018-09-19T02:53:19.092Z,1008.43
2018-09-19T02:53:59.531Z,1008.42
2018-09-19T02:54:40.050Z,1008.42
2018-09-19T02:55:20.374Z,1008.44
2018-09-19T02:56:00.809Z,1008.44
2018-09-19T02:56:41.202Z,1008.47
2018-09-19T02:57:21.574Z,1008.44
2018-09-19T02:58:01.972Z,1008.43
2018-09-19T02:58:42.538Z,1008.44
2018-09-19T02:59:22.897Z,1008.45
2018-09-19T03:00:03.319Z,1008.44
2018-09-19T03:00:43.809Z,1008.45
2018-09-19T03:01:24.241Z,1008.45
2018-09-19T03:02:04.667Z,1008.48
2018-09-19T03:02:45.143Z,1008.52
2018-09-19T03:03:25.579Z,1008.51
2018-09-19T03:04:05.993Z,1008.54
2018-09-19T03:04:46.687Z,1008.53
2018-09-19T03:05:26.971Z,1008.49
2018-09-19T03:06:08.671Z,1008.52
2018-09-19T03:06:49.072Z,1008.46
2018-09-19T03:07:29.564Z,1008.46
2018-09-19T03:08:09.910Z,1008.39
2018-09-19T03:08:50.627Z,1008.4
2018-09-19T03:09:30.988Z,1008.39
2018-09-19T03:10:11.681Z,1008.41
2018-09-19T03:10:51.865Z,1008.38
2018-09-19T03:11:32.254Z,1008.41
2018-09-19T03:12:12.626Z,1008.41
2018-09-19T03:12:53.087Z,1008.38
2018-09-19T03:13:33.666Z,1008.36
2018-09-19T03:14:14.071Z,1008.37
2018-09-19T03:14:54.451Z,1008.33
2018-09-19T03:15:34.754Z,1008.37
2018-09-19T03:16:15.162Z,1008.26
2018-09-19T03:16:55.650Z,1008.3
2018-09-19T03:17:36.172Z,1008.32
2018-09-19T03:18:16.445Z,1008.29
2018-09-19T03:18:56.925Z,1008.29
2018-09-19T03:19:37.305Z,1008.24
2018-09-19T03:20:17.681Z,1008.26
2018-09-19T03:20:58.139Z,1008.28
2018-09-19T03:21:38.531Z,1008.27
2018-09-19T03:22:19.459Z,1008.22
2018-09-19T03:22:59.512Z,1008.27
2018-09-19T03:23:39.883Z,1008.24
2018-09-19T03:24:20.434Z,1008.29
2018-09-19T03:25:00.981Z,1008.3
2018-09-19T03:25:41.560Z,1008.31
2018-09-19T03:26:22.131Z,1008.28
2018-09-19T03:27:02.578Z,1008.26
2018-09-19T03:27:43.069Z,1008.27
2018-09-19T03:28:23.484Z,1008.26
2018-09-19T03:29:04.111Z,1008.27
2018-09-19T03:29:44.590Z,1008.28
2018-09-19T03:30:24.987Z,1008.21
2018-09-19T03:31:05.487Z,1008.26
2018-09-19T03:31:45.843Z,1008.27
2018-09-19T03:32:26.252Z,1008.24
2018-09-19T03:33:06.641Z,1008.25
2018-09-19T03:33:47.070Z,1008.24
2018-09-19T03:34:27.567Z,1008.22
2018-09-19T03:35:08.076Z,1008.25
2018-09-19T03:35:48.526Z,1008.25
2018-09-19T03:36:29.097Z,1008.31
2018-09-19T03:37:09.725Z,1008.23
2018-09-19T03:37:50.074Z,1008.27
2018-09-19T03:38:30.440Z,1008.25
2018-09-19T03:39:10.899Z,1008.26
2018-09-19T03:39:51.395Z,1008.27
2018-09-19T03:40:32.054Z,1008.22
2018-09-19T03:41:12.464Z,1008.24
2018-09-19T03:41:52.864Z,1008.21
2018-09-19T03:42:33.439Z,1008.19
2018-09-19T03:43:14.070Z,1008.19
2018-09-19T03:43:54.444Z,1008.21
2018-09-19T03:44:34.816Z,1008.18
2018-09-19T03:45:15.635Z,1008.21
2018-09-19T03:45:56.239Z,1008.2
2018-09-19T03:46:36.508Z,1008.21
2018-09-19T03:47:16.959Z,1008.18
2018-09-19T03:47:57.285Z,1008.2
2018-09-19T03:48:37.691Z,1008.21
2018-09-19T03:49:18.159Z,1008.23
2018-09-19T03:49:58.578Z,1008.22
2018-09-19T03:50:39.004Z,1008.26
2018-09-19T03:51:19.414Z,1008.24
2018-09-19T03:51:59.844Z,1008.28
2018-09-19T03:52:40.235Z,1008.27
2018-09-19T03:53:20.651Z,1008.28
2018-09-19T03:54:00.964Z,1008.29
2018-09-19T03:54:41.392Z,1008.26
2018-09-19T03:55:21.912Z,1008.3
2018-09-19T03:56:02.281Z,1008.29
2018-09-19T03:56:42.624Z,1008.32
2018-09-19T03:57:23.024Z,1008.36
2018-09-19T03:58:03.636Z,1008.32
2018-09-19T04:00:39.350Z,1008.35
2018-09-19T04:14:45.459Z,1008.4
2018-09-19T04:15:26.252Z,1008.38
2018-09-19T04:16:06.978Z,1008.35
2018-09-19T04:16:47.451Z,1008.34
2018-09-19T04:17:28.140Z,1008.35
2018-09-19T04:18:08.513Z,1008.34
2018-09-19T04:18:49.168Z,1008.32
2018-09-19T04:19:29.697Z,1008.34
2018-09-19T04:20:10.054Z,1008.33
2018-09-19T04:20:50.738Z,1008.34
2018-09-19T04:21:31.250Z,1008.34
2018-09-19T04:22:11.787Z,1008.4
2018-09-19T04:22:52.397Z,1008.38
2018-09-19T04:23:33.036Z,1008.39
2018-09-19T04:24:13.462Z,1008.4
2018-09-19T04:24:54.103Z,1008.43
2018-09-19T04:25:34.529Z,1008.42
2018-09-19T04:26:15.079Z,1008.4
2018-09-19T04:26:55.301Z,1008.39
2018-09-19T04:27:35.708Z,1008.34
2018-09-19T04:28:16.575Z,1008.36
2018-09-19T05:22:12.978Z,1008.42
2018-09-19T05:23:05.559Z,1008.41
2018-09-19T05:23:58.494Z,1008.39
2018-09-19T05:24:52.222Z,1008.39
2018-09-19T05:25:45.040Z,1008.41
2018-09-19T05:26:37.813Z,1008.43
2018-09-19T05:27:32.350Z,1008.46
2018-09-19T05:28:30.456Z,1008.47
2018-09-19T05:29:37.461Z,1008.47
2018-09-19T05:31:53.274Z,1008.5
2018-09-19T05:32:52.052Z,1008.49
2018-09-19T05:45:28.045Z,1008.42
2018-09-19T05:48:13.963Z,1008.49
2018-09-19T05:50:35.826Z,1008.52
2018-09-19T05:51:16.348Z,1008.52
2018-09-19T05:51:56.796Z,1008.5
2018-09-19T05:52:37.351Z,1008.49
2018-09-19T05:55:54.552Z,1008.48
2018-09-19T05:56:38.395Z,1008.51
2018-09-19T05:57:19.472Z,1008.5
2018-09-19T05:58:00.013Z,1008.48
2018-09-19T05:58:40.465Z,1008.53
2018-09-19T05:59:21.326Z,1008.5
2018-09-19T06:00:02.549Z,1008.49
2018-09-19T06:00:43.380Z,1008.48
2018-09-19T06:01:31.150Z,1008.47
2018-09-19T06:02:12.198Z,1008.48
2018-09-19T06:02:53.000Z,1008.46
2018-09-19T06:03:33.501Z,1008.48
2018-09-19T06:04:13.944Z,1008.47
2018-09-19T06:04:54.528Z,1008.46
2018-09-19T06:05:35.160Z,1008.42
2018-09-19T06:06:16.638Z,1008.41
2018-09-19T06:08:42.630Z,1008.4
2018-09-19T06:09:35.983Z,1008.34
2018-09-19T06:10:31.866Z,1008.38
2018-09-19T06:17:13.652Z,1008.28
2018-09-19T06:18:02.548Z,1008.34
2018-09-19T06:18:44.638Z,1008.35
2018-09-19T06:19:27.063Z,1008.27
2018-09-19T06:20:08.017Z,1008.29
2018-09-19T06:20:48.954Z,1008.29
2018-09-19T06:21:29.460Z,1008.29
2018-09-19T06:22:10.627Z,1008.31
2018-09-19T06:22:51.242Z,1008.29
2018-09-19T06:23:31.630Z,1008.33
2018-09-19T06:24:12.480Z,1008.33
2018-09-19T06:25:08.783Z,1008.32
2018-09-19T06:25:56.334Z,1008.31
2018-09-19T06:44:46.503Z,1008.47
2018-09-19T06:45:28.179Z,1008.52
2018-09-19T06:46:07.455Z,1008.5
2018-09-19T06:46:48.198Z,1008.51
2018-09-19T06:47:28.959Z,1008.48
2018-09-19T06:48:09.824Z,1008.46
2018-09-19T06:48:50.385Z,1008.45
2018-09-19T06:49:32.052Z,1008.47
2018-09-19T06:50:11.902Z,1008.44
2018-09-19T06:50:52.361Z,1008.46
2018-09-19T06:51:33.058Z,1008.48
2018-09-19T06:52:14.112Z,1008.47
2018-09-19T06:52:54.789Z,1008.45
2018-09-19T06:53:35.287Z,1008.42
2018-09-19T06:54:15.745Z,1008.4
2018-09-19T06:54:56.295Z,1008.39
2018-09-19T06:55:36.833Z,1008.38
2018-09-19T06:56:17.443Z,1008.42
2018-09-19T06:56:57.887Z,1008.41
2018-09-19T07:03:24.892Z,1008.41
2018-09-19T07:05:27.017Z,1008.4
2018-09-19T07:06:07.433Z,1008.43
2018-09-19T07:06:48.341Z,1008.44
2018-09-19T07:10:47.049Z,1008.45
2018-09-19T07:11:31.658Z,1008.41
2018-09-19T07:12:17.049Z,1008.43
2018-09-19T07:13:42.557Z,1008.42
2018-09-19T07:14:26.425Z,1008.44
2018-09-19T07:15:05.912Z,1008.4
2018-09-19T07:16:44.332Z,1008.43
2018-09-19T07:17:27.088Z,1008.38
2018-09-19T07:18:05.951Z,1008.45
2018-09-19T07:19:07.043Z,1008.41
2018-09-19T07:19:47.644Z,1008.45
2018-09-19T07:20:29.109Z,1008.41
2018-09-19T07:21:09.746Z,1008.46
2018-09-19T07:22:10.216Z,1008.43
2018-09-19T07:22:51.990Z,1008.42
2018-09-19T07:23:33.076Z,1008.46
2018-09-19T07:24:12.834Z,1008.45
2018-09-19T07:24:53.292Z,1008.44
2018-09-19T07:25:36.701Z,1008.49
2018-09-19T07:26:17.279Z,1008.45
2018-09-19T07:26:58.090Z,1008.51
2018-09-19T07:27:39.072Z,1008.5
2018-09-19T07:28:31.252Z,1008.51
2018-09-19T07:29:12.693Z,1008.53
2018-09-19T07:29:52.530Z,1008.49
2018-09-19T07:30:32.940Z,1008.54
2018-09-19T07:31:13.740Z,1008.51
2018-09-19T07:31:53.997Z,1008.45
2018-09-19T07:32:34.435Z,1008.5
2018-09-19T07:33:14.778Z,1008.49
2018-09-19T07:33:55.446Z,1008.47
2018-09-19T07:34:35.979Z,1008.5
2018-09-19T07:35:16.647Z,1008.55
2018-09-19T07:35:57.619Z,1008.47
2018-09-19T07:36:38.110Z,1008.54
2018-09-19T07:37:18.563Z,1008.53
2018-09-19T07:37:59.066Z,1008.48
2018-09-19T07:38:39.951Z,1008.51
2018-09-19T07:39:20.610Z,1008.53
2018-09-19T07:40:01.139Z,1008.46
2018-09-19T07:40:41.633Z,1008.5
2018-09-19T07:41:22.234Z,1008.49
2018-09-19T07:42:02.902Z,1008.53
2018-09-19T07:42:43.490Z,1008.6
2018-09-19T07:43:23.841Z,1008.58
2018-09-19T07:44:04.377Z,1008.52
2018-09-19T07:44:45.064Z,1008.52
2018-09-19T07:45:25.580Z,1008.53
2018-09-19T07:46:06.168Z,1008.52
2018-09-19T07:46:47.228Z,1008.52
2018-09-19T07:47:28.502Z,1008.54
2018-09-19T07:48:09.255Z,1008.55
2018-09-19T07:48:51.558Z,1008.51
2018-09-19T07:53:50.980Z,1008.59
2018-09-19T07:56:48.037Z,1008.6
2018-09-19T07:57:31.451Z,1008.6
2018-09-19T07:58:11.902Z,1008.62
2018-09-19T07:58:52.436Z,1008.58
2018-09-19T07:59:33.166Z,1008.63
2018-09-19T08:00:15.467Z,1008.61
2018-09-19T08:04:55.836Z,1008.67
2018-09-19T08:05:36.445Z,1008.65
2018-09-19T08:06:16.536Z,1008.61
2018-09-19T08:06:57.398Z,1008.57
2018-09-19T08:07:38.296Z,1008.63
2018-09-19T08:08:19.489Z,1008.64
2018-09-19T08:08:59.664Z,1008.58
2018-09-19T08:09:40.206Z,1008.58
2018-09-19T08:10:20.992Z,1008.6
2018-09-19T08:11:02.103Z,1008.58
2018-09-19T08:11:43.432Z,1008.57
2018-09-19T08:12:23.818Z,1008.58
2018-09-19T08:13:04.411Z,1008.59
2018-09-19T08:13:44.981Z,1008.6
2018-09-19T08:14:25.551Z,1008.6
2018-09-19T08:15:05.910Z,1008.62
2018-09-19T08:15:46.504Z,1008.62
2018-09-19T08:16:27.043Z,1008.66
2018-09-19T08:17:07.517Z,1008.61
2018-09-19T08:17:47.944Z,1008.61
2018-09-19T08:18:28.409Z,1008.58
2018-09-19T08:19:10.132Z,1008.59
2018-09-19T08:19:50.587Z,1008.63
2018-09-19T08:20:31.432Z,1008.62
2018-09-19T08:21:11.930Z,1008.59
2018-09-19T08:21:53.674Z,1008.63
2018-09-19T08:22:34.062Z,1008.61
2018-09-19T08:23:15.139Z,1008.65
2018-09-19T08:23:55.978Z,1008.63
2018-09-19T08:24:37.225Z,1008.62
2018-09-19T08:25:17.929Z,1008.59
2018-09-19T08:25:58.490Z,1008.68
2018-09-19T08:26:39.286Z,1008.67
2018-09-19T08:27:21.036Z,1008.65
2018-09-19T08:28:02.410Z,1008.62
2018-09-19T08:28:42.947Z,1008.62
2018-09-19T08:29:23.440Z,1008.65
2018-09-19T08:30:03.849Z,1008.64
2018-09-19T08:30:44.373Z,1008.64
2018-09-19T08:31:24.972Z,1008.6
2018-09-19T08:32:05.769Z,1008.56
2018-09-19T08:32:50.059Z,1008.6
2018-09-19T08:33:30.832Z,1008.59
2018-09-19T08:34:11.983Z,1008.6
2018-09-19T08:34:53.439Z,1008.6
2018-09-19T08:35:34.405Z,1008.62
2018-09-19T08:36:14.523Z,1008.62
2018-09-19T08:36:55.410Z,1008.59
2018-09-19T08:37:35.700Z,1008.55
2018-09-19T08:38:16.918Z,1008.56
2018-09-19T08:38:57.374Z,1008.62
2018-09-19T08:39:38.459Z,1008.59
2018-09-19T08:40:18.979Z,1008.59
2018-09-19T08:41:00.054Z,1008.67
2018-09-19T08:41:41.533Z,1008.61
2018-09-19T08:42:22.406Z,1008.64
2018-09-19T08:43:02.953Z,1008.63
2018-09-19T08:43:44.297Z,1008.61
2018-09-19T08:44:25.045Z,1008.65
2018-09-19T08:45:05.870Z,1008.67
2018-09-19T08:45:47.154Z,1008.65
2018-09-19T08:46:27.915Z,1008.63
2018-09-19T08:47:09.446Z,1008.69
2018-09-19T08:47:49.847Z,1008.68
2018-09-19T08:48:32.484Z,1008.64
2018-09-19T08:49:13.251Z,1008.64
2018-09-19T08:49:54.044Z,1008.69
2018-09-19T08:50:35.041Z,1008.63
2018-09-19T08:51:15.866Z,1008.65
2018-09-19T08:51:56.959Z,1008.66
2018-09-19T08:52:38.499Z,1008.65
2018-09-19T08:53:19.068Z,1008.67
2018-09-19T08:54:03.729Z,1008.62
2018-09-19T08:54:44.333Z,1008.62
2018-09-19T08:55:25.315Z,1008.59
2018-09-19T08:56:06.966Z,1008.68
2018-09-19T08:56:47.996Z,1008.56
2018-09-19T08:57:28.986Z,1008.63
2018-09-19T08:58:09.472Z,1008.5
2018-09-19T08:58:49.885Z,1008.45
2018-09-19T08:59:31.011Z,1008.56
2018-09-19T09:00:12.079Z,1008.44
2018-09-19T09:00:52.779Z,1008.43
2018-09-19T09:01:34.153Z,1008.49
2018-09-19T09:02:16.053Z,1008.39
2018-09-19T09:02:56.978Z,1008.44
2018-09-19T09:03:36.961Z,1008.39
2018-09-19T09:04:17.801Z,1008.41
2018-09-19T09:04:58.544Z,1008.38
2018-09-19T09:05:39.744Z,1008.43
2018-09-19T09:06:20.122Z,1008.35
2018-09-19T09:07:00.689Z,1008.43
2018-09-19T09:07:41.492Z,1008.36
2018-09-19T09:08:22.809Z,1008.44
2018-09-19T09:09:04.257Z,1008.35
2018-09-19T09:09:44.374Z,1008.36
2018-09-19T09:10:26.329Z,1008.4
2018-09-19T09:11:06.361Z,1008.42
2018-09-19T09:11:46.566Z,1008.38
2018-09-19T09:12:27.211Z,1008.37
2018-09-19T09:13:10.441Z,1008.4
2018-09-19T09:13:50.662Z,1008.41
2018-09-19T09:14:32.190Z,1008.4
2018-09-19T09:15:12.695Z,1008.37
2018-09-19T09:15:53.850Z,1008.33
2018-09-19T09:16:33.939Z,1008.43
2018-09-19T09:17:15.680Z,1008.39
2018-09-19T09:18:10.958Z,1008.36
2018-09-19T09:18:51.453Z,1008.4
2018-09-19T09:19:31.996Z,1008.38
2018-09-19T09:20:12.427Z,1008.41
2018-09-19T09:20:53.052Z,1008.35
2018-09-19T09:21:33.572Z,1008.29
2018-09-19T09:22:14.022Z,1008.4
2018-09-19T09:22:55.461Z,1008.35
2018-09-19T09:23:35.966Z,1008.35
2018-09-19T09:24:17.391Z,1008.34
2018-09-19T09:24:58.905Z,1008.35
2018-09-19T09:25:39.110Z,1008.31
2018-09-19T09:26:19.854Z,1008.44
2018-09-19T09:27:00.738Z,1008.3
2018-09-19T09:27:41.086Z,1008.32
2018-09-19T09:28:21.423Z,1008.34
2018-09-19T09:29:02.041Z,1008.41
2018-09-19T09:29:42.959Z,1008.35
2018-09-19T09:30:23.519Z,1008.36
2018-09-19T09:31:04.136Z,1008.26
2018-09-19T09:31:44.681Z,1008.32
2018-09-19T09:34:12.411Z,1008.35
2018-09-19T09:34:51.692Z,1008.28
2018-09-19T09:35:32.117Z,1008.37
2018-09-19T09:36:14.612Z,1008.33
2018-09-19T09:36:55.122Z,1008.26
2018-09-19T09:37:37.641Z,1008.13
2018-09-19T09:38:21.643Z,1008.27
2018-09-19T09:39:05.267Z,1008.39
2018-09-19T09:39:47.564Z,1008.21
2018-09-19T09:51:41.302Z,1008.29
2018-09-19T09:52:24.735Z,1008.28
2018-09-19T09:53:08.198Z,1008.23
2018-09-19T09:53:50.457Z,1008.25
2018-09-19T09:54:32.522Z,1008.23
2018-09-19T09:55:15.025Z,1008.19
2018-09-19T09:55:55.953Z,1008.26
2018-09-19T09:56:37.423Z,1008.27
2018-09-19T09:57:18.330Z,1008.22
2018-09-19T09:57:58.701Z,1008.27
2018-09-19T09:58:39.527Z,1008.24
2018-09-19T09:59:22.994Z,1008.24
2018-09-19T10:00:04.477Z,1008.19
2018-09-19T10:00:48.111Z,1008.27
2018-09-19T10:01:33.086Z,1008.24
2018-09-19T10:02:15.549Z,1008.21
2018-09-19T10:02:58.715Z,1008.2
2018-09-19T10:03:41.051Z,1008.23
2018-09-19T10:04:26.066Z,1008.14
2018-09-19T10:05:06.156Z,1008.17
2018-09-19T10:05:48.107Z,1008.19
2018-09-19T10:06:54.608Z,1008.21
2018-09-19T10:07:36.283Z,1008.21
2018-09-19T10:08:22.750Z,1008.26
2018-09-19T10:09:04.489Z,1008.16
2018-09-19T10:09:46.410Z,1008.19
2018-09-19T10:10:29.249Z,1008.16
2018-09-19T10:11:10.520Z,1008.09
2018-09-19T10:11:53.137Z,1008
2018-09-19T10:12:34.475Z,1008.14
2018-09-19T10:13:15.255Z,1008.12
2018-09-19T10:13:59.600Z,1008.12
2018-09-19T10:14:46.860Z,1008.08
2018-09-19T10:15:29.023Z,1008.1
2018-09-19T10:16:13.388Z,1008.08
2018-09-19T10:16:56.711Z,1008.11
2018-09-19T10:17:38.832Z,1008.13
2018-09-19T10:18:24.065Z,1008.13
2018-09-19T10:19:10.014Z,1008.04
2018-09-19T10:19:53.624Z,1008.09
2018-09-19T10:20:36.756Z,1008.1
2018-09-19T10:21:19.117Z,1008.07
2018-09-19T10:22:00.924Z,1008.15
2018-09-19T10:22:42.981Z,1008.12
2018-09-19T10:23:23.780Z,1008.08
2018-09-19T10:24:05.282Z,1008.09
2018-09-19T10:24:46.541Z,1008.1
2018-09-19T10:25:27.382Z,1008.09
2018-09-19T10:26:08.286Z,1008.03
2018-09-19T10:26:49.096Z,1008.05
2018-09-19T10:27:48.282Z,1008.1
2018-09-19T10:28:47.078Z,1008.12
2018-09-19T11:28:03.812Z,1007.94
2018-09-19T11:28:46.376Z,1007.92
2018-09-19T11:29:26.298Z,1007.96
2018-09-19T11:30:07.403Z,1008
2018-09-19T11:30:48.356Z,1007.99
2018-09-19T11:31:29.050Z,1007.99
2018-09-19T11:32:10.515Z,1007.95
2018-09-19T11:32:52.024Z,1007.95
2018-09-19T11:33:33.134Z,1007.92
2018-09-19T11:34:15.506Z,1007.8
2018-09-19T11:34:57.059Z,1007.82
2018-09-19T11:35:38.758Z,1007.87
2018-09-19T11:36:28.904Z,1007.94
2018-09-19T11:37:11.575Z,1007.87
2018-09-19T11:37:54.024Z,1007.86
2018-09-19T11:38:34.753Z,1007.88
2018-09-19T11:39:16.083Z,1007.87
2018-09-19T11:39:56.270Z,1007.82
2018-09-19T11:40:37.941Z,1007.87
2018-09-19T11:41:18.885Z,1007.94
2018-09-19T11:41:59.718Z,1007.87
2018-09-19T11:42:40.975Z,1007.94
2018-09-19T11:43:23.301Z,1007.93
2018-09-19T11:44:02.671Z,1007.92
2018-09-19T11:44:43.434Z,1007.92
2018-09-19T11:46:49.735Z,1007.92
2018-09-19T11:47:43.511Z,1007.97
2018-09-19T11:48:23.831Z,1007.99
2018-09-19T11:49:04.391Z,1007.97
2018-09-19T11:49:44.889Z,1008.07
2018-09-19T11:50:25.822Z,1008.04
2018-09-19T11:51:07.335Z,1008.01
2018-09-19T11:51:49.038Z,1008.03
2018-09-19T11:52:30.347Z,1008.03
2018-09-19T11:53:12.538Z,1008.03